Time;durP1;ratioP1;P1;durP2;ratioP2;P2;SDS_P1;SDS_P2;PMS_P1;PMS_P2;Temp;Humidity;BMP_temperature;BMP_pressure;BME280_temperature;BME280_humidity;BME280_pressure;Samples;Min_cycle;Max_cycle;Signal;HPM_P1;HPM_P2
2022/04/23 00:01:04;;;;;;;1.60;1.20;;;10.80;99.90;;;;;;5010520;28;20217;-81
2022/04/23 00:03:29;;;;;;;1.37;1.13;;;10.80;99.90;;;;;;5011973;28;20187;-81
2022/04/23 00:05:55;;;;;;;0.80;0.40;;;10.80;99.90;;;;;;5004096;28;20195;-81
2022/04/23 00:08:20;;;;;;;1.40;1.37;;;10.80;99.90;;;;;;5008117;28;20285;-81
2022/04/23 00:10:46;;;;;;;0.63;0.63;;;10.80;99.90;;;;;;5003355;28;20195;-81
2022/04/23 00:13:12;;;;;;;0.87;0.87;;;10.70;99.90;;;;;;5008167;28;20179;-81
2022/04/23 00:15:37;;;;;;;1.10;1.03;;;10.70;99.90;;;;;;5002915;28;21269;-81
2022/04/23 00:18:06;;;;;;;2.03;1.17;;;10.60;99.90;;;;;;5002742;28;20258;-81
2022/04/23 00:20:33;;;;;;;0.90;0.87;;;10.60;99.90;;;;;;5019728;28;20205;-80
2022/04/23 00:22:59;;;;;;;1.37;0.93;;;10.60;99.90;;;;;;5002795;28;20191;-81
2022/04/23 00:25:25;;;;;;;0.93;0.80;;;10.50;99.90;;;;;;5008574;28;20645;-81
2022/04/23 00:27:51;;;;;;;0.90;0.90;;;10.50;99.90;;;;;;5009928;28;20198;-81
2022/04/23 00:30:17;;;;;;;0.93;0.73;;;10.50;99.90;;;;;;5001734;28;20217;-81
2022/04/23 00:32:42;;;;;;;0.57;0.57;;;10.50;99.90;;;;;;5003470;28;20225;-81
2022/04/23 00:35:12;;;;;;;1.00;0.97;;;10.50;99.90;;;;;;5018012;28;21344;-81
2022/04/23 00:37:38;;;;;;;1.17;0.93;;;10.50;99.90;;;;;;5001945;28;20679;-81
2022/04/23 00:40:07;;;;;;;2.97;0.80;;;10.50;99.90;;;;;;5017640;28;20557;-81
2022/04/23 00:42:44;;;;;;;1.73;1.27;;;10.40;99.90;;;;;;5002206;28;20203;-81
2022/04/23 00:45:10;;;;;;;2.53;1.50;;;10.40;99.90;;;;;;5004094;28;20565;-81
2022/04/23 00:47:35;;;;;;;2.07;1.77;;;10.40;99.90;;;;;;5008565;28;20287;-81
2022/04/23 00:50:02;;;;;;;1.27;0.90;;;10.30;99.90;;;;;;5001706;28;20226;-81
2022/04/23 00:52:28;;;;;;;0.70;0.70;;;10.30;99.90;;;;;;5003493;28;20178;-81
2022/04/23 00:54:53;;;;;;;3.40;1.20;;;10.30;99.90;;;;;;5016244;28;20189;-80
2022/04/23 00:57:20;;;;;;;1.43;0.90;;;10.30;99.90;;;;;;5017865;28;20187;-81
2022/04/23 00:59:49;;;;;;;1.40;1.03;;;10.30;99.90;;;;;;5002632;28;20312;-81
2022/04/23 01:02:15;;;;;;;1.47;1.37;;;10.30;99.90;;;;;;5001250;28;20205;-81
2022/04/23 01:04:41;;;;;;;1.63;1.50;;;10.30;99.90;;;;;;5016602;28;20187;-81
2022/04/23 01:07:08;;;;;;;1.53;1.43;;;10.30;99.90;;;;;;5007287;28;20218;-81
2022/04/23 01:09:33;;;;;;;1.27;0.97;;;10.30;99.90;;;;;;5001801;28;20219;-81
2022/04/23 01:11:59;;;;;;;0.73;0.73;;;10.30;99.90;;;;;;5007822;28;20202;-81
2022/04/23 01:14:26;;;;;;;1.33;1.23;;;10.20;99.90;;;;;;5005961;28;21378;-81
2022/04/23 01:16:51;;;;;;;1.00;1.00;;;10.20;99.90;;;;;;5008095;28;20217;-81
2022/04/23 01:19:17;;;;;;;2.13;1.90;;;10.20;99.90;;;;;;4991079;28;20219;-81
2022/04/23 01:21:43;;;;;;;7.10;1.43;;;10.20;99.90;;;;;;5003044;28;20194;-81
2022/04/23 01:24:09;;;;;;;0.73;0.70;;;10.20;99.90;;;;;;5007644;28;20202;-81
2022/04/23 01:26:35;;;;;;;0.70;0.70;;;10.20;99.90;;;;;;5000222;28;20205;-81
2022/04/23 01:29:01;;;;;;;1.23;1.13;;;10.10;99.90;;;;;;5002212;28;20291;-81
2022/04/23 01:31:27;;;;;;;1.83;1.33;;;10.10;99.90;;;;;;5007010;28;20205;-81
2022/04/23 01:33:54;;;;;;;3.20;1.20;;;10.10;99.90;;;;;;5000526;28;20194;-81
2022/04/23 01:36:20;;;;;;;1.83;1.67;;;10.10;99.90;;;;;;5001073;28;20222;-81
2022/04/23 01:38:46;;;;;;;1.47;1.37;;;10.10;99.90;;;;;;5000895;28;20435;-81
2022/04/23 01:41:12;;;;;;;1.17;1.07;;;10.10;99.90;;;;;;5017515;28;20266;-81
2022/04/23 01:43:37;;;;;;;0.93;0.70;;;10.10;99.90;;;;;;5000919;28;20191;-81
2022/04/23 01:46:03;;;;;;;1.53;1.43;;;10.10;99.90;;;;;;5018417;28;20248;-80
2022/04/23 01:48:29;;;;;;;2.03;1.87;;;10.00;99.90;;;;;;5001879;28;20215;-81
2022/04/23 01:50:55;;;;;;;1.33;1.00;;;10.00;99.90;;;;;;5017129;28;20277;-81
2022/04/23 01:53:22;;;;;;;2.17;1.47;;;10.00;99.90;;;;;;5000727;28;20221;-81
2022/04/23 01:55:51;;;;;;;1.30;1.20;;;10.00;99.90;;;;;;5001302;28;20646;-81
2022/04/23 01:58:17;;;;;;;1.33;1.23;;;10.00;99.90;;;;;;4999016;28;20191;-81
2022/04/23 02:00:44;;;;;;;1.40;1.17;;;10.00;99.90;;;;;;5020661;28;20190;-81
2022/04/23 02:03:09;;;;;;;1.63;1.57;;;10.00;99.90;;;;;;5003790;28;20179;-81
2022/04/23 02:05:35;;;;;;;1.47;0.80;;;10.00;99.90;;;;;;5014972;28;20220;-81
2022/04/23 02:08:00;;;;;;;0.83;0.83;;;9.90;99.90;;;;;;5000102;28;20249;-81
2022/04/23 02:10:26;;;;;;;5.40;1.07;;;9.90;99.90;;;;;;5006342;28;20201;-81
2022/04/23 02:12:52;;;;;;;1.70;1.30;;;9.90;99.90;;;;;;5005673;28;20229;-81
2022/04/23 02:15:18;;;;;;;0.60;0.60;;;10.00;99.90;;;;;;4999878;28;20206;-81
2022/04/23 02:17:45;;;;;;;3.53;1.57;;;9.90;99.90;;;;;;5005324;28;20199;-81
2022/04/23 02:20:15;;;;;;;1.40;1.30;;;9.90;99.90;;;;;;4998899;28;20211;-81
2022/04/23 02:22:44;;;;;;;0.60;0.60;;;9.90;99.90;;;;;;4999222;28;21340;-81
2022/04/23 02:25:11;;;;;;;0.40;0.40;;;9.80;99.90;;;;;;4999022;28;20278;-82
2022/04/23 02:27:47;;;;;;;2.17;1.27;;;9.90;99.90;;;;;;5000368;28;20603;-81
2022/04/23 02:30:18;;;;;;;0.97;0.90;;;9.80;99.90;;;;;;5001115;28;20214;-81
2022/04/23 02:32:44;;;;;;;0.93;0.93;;;9.80;99.90;;;;;;5000025;28;20250;-82
2022/04/23 02:35:15;;;;;;;1.37;1.07;;;9.80;99.90;;;;;;4999285;28;20222;-82
2022/04/23 02:37:42;;;;;;;1.87;1.53;;;9.80;99.90;;;;;;5006347;28;20679;-82
2022/04/23 02:40:08;;;;;;;1.10;1.10;;;9.80;99.90;;;;;;5000434;28;20202;-82
2022/04/23 02:42:37;;;;;;;1.50;1.40;;;9.70;99.90;;;;;;5013760;28;20187;-81
2022/04/23 02:45:10;;;;;;;1.43;1.33;;;9.70;99.90;;;;;;5005826;28;20187;-82
2022/04/23 02:47:51;;;;;;;1.27;1.00;;;9.70;99.90;;;;;;4999200;28;20218;-81
2022/04/23 02:50:26;;;;;;;1.70;0.97;;;9.70;99.90;;;;;;5000464;28;20741;-81
2022/04/23 02:52:55;;;;;;;1.40;1.30;;;9.60;99.90;;;;;;5008113;28;20656;-81
2022/04/23 02:55:21;;;;;;;1.00;0.80;;;9.60;99.90;;;;;;5017388;28;20852;-81
2022/04/23 02:57:46;;;;;;;1.57;1.43;;;9.70;99.90;;;;;;5001629;28;20225;-82
2022/04/23 03:00:12;;;;;;;1.07;0.97;;;9.70;99.90;;;;;;5001371;28;20205;-81
2022/04/23 03:02:38;;;;;;;1.20;1.10;;;9.70;99.90;;;;;;5014018;28;20233;-82
2022/04/23 03:05:06;;;;;;;0.93;0.83;;;9.70;99.90;;;;;;5016210;28;20189;-82
2022/04/23 03:07:33;;;;;;;2.30;1.43;;;9.60;99.90;;;;;;5008716;28;20203;-82
2022/04/23 03:09:59;;;;;;;1.20;1.00;;;9.60;99.90;;;;;;5002202;28;20306;-81
2022/04/23 03:12:24;;;;;;;3.13;1.30;;;9.70;99.90;;;;;;5001912;28;20190;-82
2022/04/23 03:14:50;;;;;;;0.90;0.90;;;9.70;99.90;;;;;;5002540;28;20202;-81
2022/04/23 03:17:15;;;;;;;0.90;0.90;;;9.70;99.90;;;;;;5003242;28;20222;-81
2022/04/23 03:19:41;;;;;;;2.67;2.20;;;9.70;99.90;;;;;;5008852;28;20315;-81
2022/04/23 03:22:07;;;;;;;1.70;1.00;;;9.70;99.90;;;;;;5016888;28;20187;-82
2022/04/23 03:24:32;;;;;;;2.03;0.80;;;9.70;99.90;;;;;;5002275;28;20197;-81
2022/04/23 03:26:58;;;;;;;2.60;1.13;;;9.60;99.90;;;;;;5010027;28;20569;-81
2022/04/23 03:29:23;;;;;;;1.03;1.00;;;9.60;99.90;;;;;;5012512;28;20280;-82
2022/04/23 03:31:50;;;;;;;2.60;1.37;;;9.70;99.90;;;;;;5004796;28;20205;-82
2022/04/23 03:34:16;;;;;;;1.57;1.30;;;9.70;99.90;;;;;;5020350;28;20259;-82
2022/04/23 03:36:41;;;;;;;1.40;0.90;;;9.70;99.90;;;;;;5018640;28;20222;-82
2022/04/23 03:39:07;;;;;;;1.27;0.80;;;9.70;99.90;;;;;;5010535;28;20206;-82
2022/04/23 03:41:34;;;;;;;1.43;1.33;;;9.70;99.90;;;;;;5017628;28;20652;-81
2022/04/23 03:44:00;;;;;;;1.03;1.03;;;9.70;99.90;;;;;;5016605;28;20221;-81
2022/04/23 03:46:25;;;;;;;1.80;0.97;;;9.70;99.90;;;;;;5008674;28;20672;-83
2022/04/23 03:48:51;;;;;;;1.17;1.10;;;9.70;99.90;;;;;;5003899;28;20207;-81
2022/04/23 03:51:16;;;;;;;0.50;0.50;;;9.70;99.90;;;;;;5015864;28;20197;-83
2022/04/23 03:53:42;;;;;;;1.30;1.07;;;9.70;99.90;;;;;;4997385;28;20186;-82
2022/04/23 03:56:09;;;;;;;1.23;1.13;;;9.80;99.90;;;;;;5009165;28;20574;-81
2022/04/23 03:58:34;;;;;;;0.87;0.80;;;9.80;99.90;;;;;;5015733;28;20293;-81
2022/04/23 04:01:00;;;;;;;2.07;1.20;;;9.80;99.90;;;;;;5016980;28;20278;-82
2022/04/23 04:03:26;;;;;;;0.93;0.67;;;9.80;99.90;;;;;;5018104;28;20273;-82
2022/04/23 04:05:52;;;;;;;1.20;0.87;;;9.90;99.90;;;;;;5015573;28;20183;-81
2022/04/23 04:08:18;;;;;;;0.70;0.70;;;10.00;99.90;;;;;;5015416;28;20731;-82
2022/04/23 04:10:43;;;;;;;0.33;0.33;;;10.00;99.90;;;;;;5016236;28;20213;-82
2022/04/23 04:13:09;;;;;;;2.83;1.60;;;10.00;99.90;;;;;;4999896;28;20212;-82
2022/04/23 04:15:35;;;;;;;0.97;0.87;;;10.00;99.90;;;;;;5015775;28;20696;-82
2022/04/23 04:18:01;;;;;;;0.63;0.57;;;10.10;99.90;;;;;;5002158;28;20214;-81
2022/04/23 04:20:29;;;;;;;2.00;1.33;;;10.20;99.90;;;;;;5006670;28;20880;-82
2022/04/23 04:22:55;;;;;;;1.30;1.17;;;10.10;99.90;;;;;;5007645;28;20179;-81
2022/04/23 04:25:21;;;;;;;1.80;1.53;;;10.10;99.90;;;;;;5015156;28;20580;-81
2022/04/23 04:27:46;;;;;;;1.47;1.37;;;10.20;99.90;;;;;;5015709;28;20289;-81
2022/04/23 04:30:12;;;;;;;3.73;1.03;;;10.20;99.90;;;;;;5001079;28;20542;-82
2022/04/23 04:32:39;;;;;;;2.63;0.70;;;10.20;99.90;;;;;;5000390;28;20730;-82
2022/04/23 04:35:05;;;;;;;0.70;0.70;;;10.30;99.90;;;;;;4999177;28;20692;-83
2022/04/23 04:37:30;;;;;;;1.47;1.17;;;10.40;99.90;;;;;;5000062;28;20190;-82
2022/04/23 04:39:56;;;;;;;1.47;1.37;;;10.50;99.90;;;;;;5005409;28;20680;-82
2022/04/23 04:42:22;;;;;;;0.97;0.97;;;10.50;99.90;;;;;;4998776;28;20190;-82
2022/04/23 04:44:49;;;;;;;1.07;0.97;;;10.40;99.90;;;;;;4999469;28;20175;-81
2022/04/23 04:47:15;;;;;;;7.00;1.40;;;10.50;99.90;;;;;;5001154;28;20183;-82
2022/04/23 04:49:41;;;;;;;2.70;0.57;;;10.50;99.90;;;;;;5000206;28;20210;-81
2022/04/23 04:52:06;;;;;;;7.43;1.07;;;10.50;99.90;;;;;;5001752;28;20188;-82
2022/04/23 04:54:32;;;;;;;1.23;0.93;;;10.50;99.90;;;;;;4998817;28;20194;-82
2022/04/23 04:56:58;;;;;;;4.97;1.30;;;10.50;99.90;;;;;;4999248;28;20296;-82
2022/04/23 04:59:24;;;;;;;0.80;0.80;;;10.50;99.90;;;;;;4999413;28;20684;-82
2022/04/23 05:01:51;;;;;;;1.17;1.03;;;10.60;99.90;;;;;;5005921;28;20608;-82
2022/04/23 05:04:17;;;;;;;3.70;1.77;;;10.60;99.90;;;;;;5005630;28;20183;-82
2022/04/23 05:06:43;;;;;;;1.20;0.90;;;10.60;99.90;;;;;;5005232;28;20191;-81
2022/04/23 05:09:08;;;;;;;1.23;1.13;;;10.70;99.90;;;;;;5004561;28;20727;-81
2022/04/23 05:11:34;;;;;;;0.87;0.60;;;10.70;99.90;;;;;;5000083;28;20194;-82
2022/04/23 05:13:59;;;;;;;1.00;0.90;;;10.70;99.90;;;;;;5000298;28;20228;-82
2022/04/23 05:16:25;;;;;;;1.17;1.03;;;10.80;99.90;;;;;;5000352;28;20673;-82
2022/04/23 05:18:50;;;;;;;0.67;0.57;;;10.70;99.90;;;;;;5004240;28;20605;-80
2022/04/23 05:21:16;;;;;;;1.17;1.10;;;10.90;99.90;;;;;;5001465;28;20186;-79
2022/04/23 05:23:42;;;;;;;1.10;0.83;;;11.00;99.90;;;;;;5012089;28;20184;-79
2022/04/23 05:26:09;;;;;;;0.77;0.63;;;10.90;99.90;;;;;;4999511;28;20221;-79
2022/04/23 05:28:35;;;;;;;1.53;0.63;;;10.90;99.90;;;;;;4998451;28;20674;-80
2022/04/23 05:31:01;;;;;;;0.77;0.67;;;10.90;99.90;;;;;;5011741;28;20270;-82
2022/04/23 05:33:26;;;;;;;0.40;0.40;;;10.90;99.90;;;;;;5012740;28;20194;-81
2022/04/23 05:35:52;;;;;;;3.30;1.20;;;10.90;99.90;;;;;;4997691;28;20212;-81
2022/04/23 05:38:19;;;;;;;0.60;0.43;;;11.00;99.90;;;;;;5000960;28;20180;-81
2022/04/23 05:40:45;;;;;;;0.77;0.50;;;11.00;99.90;;;;;;4999902;28;20170;-81
2022/04/23 05:43:10;;;;;;;0.93;0.93;;;11.10;99.90;;;;;;5000075;28;20557;-81
2022/04/23 05:45:36;;;;;;;1.13;0.60;;;11.20;99.90;;;;;;5016074;28;20198;-81
2022/04/23 05:48:02;;;;;;;0.60;0.60;;;11.30;99.90;;;;;;4998328;28;20199;-81
2022/04/23 05:50:27;;;;;;;1.40;0.60;;;11.40;99.90;;;;;;5006401;28;20203;-81
2022/04/23 05:52:53;;;;;;;0.67;0.67;;;11.30;99.90;;;;;;4999316;28;20576;-81
2022/04/23 05:55:19;;;;;;;0.50;0.50;;;11.40;99.90;;;;;;5015364;28;20621;-82
2022/04/23 05:57:44;;;;;;;0.37;0.37;;;11.20;99.90;;;;;;5001071;28;20195;-81
2022/04/23 06:00:11;;;;;;;1.40;1.30;;;11.30;99.90;;;;;;5014237;28;20207;-81
2022/04/23 06:02:37;;;;;;;0.43;0.43;;;11.30;99.90;;;;;;4998818;28;20191;-82
2022/04/23 06:05:04;;;;;;;0.60;0.60;;;11.40;99.90;;;;;;4999443;28;20198;-81
2022/04/23 06:07:30;;;;;;;0.90;0.73;;;11.40;99.90;;;;;;5004055;28;20203;-81
2022/04/23 06:09:56;;;;;;;0.77;0.77;;;11.50;99.90;;;;;;5000817;28;20203;-81
2022/04/23 06:12:22;;;;;;;1.10;1.03;;;11.60;99.90;;;;;;4998349;28;20179;-81
2022/04/23 06:14:49;;;;;;;0.53;0.53;;;11.70;99.90;;;;;;5000544;28;20191;-81
2022/04/23 06:17:15;;;;;;;0.70;0.60;;;11.60;99.90;;;;;;5014203;28;20231;-81
2022/04/23 06:19:42;;;;;;;1.30;1.20;;;11.80;99.90;;;;;;5004618;28;20214;-81
2022/04/23 06:22:08;;;;;;;1.13;0.77;;;11.90;99.90;;;;;;4998309;28;20184;-81
2022/04/23 06:24:34;;;;;;;1.90;0.50;;;11.90;99.90;;;;;;4996744;28;20198;-81
2022/04/23 06:27:01;;;;;;;1.90;1.00;;;11.90;99.90;;;;;;5011768;28;20261;-79
2022/04/23 06:29:27;;;;;;;2.57;0.90;;;11.90;99.90;;;;;;4999242;28;20215;-79
2022/04/23 06:31:52;;;;;;;0.87;0.63;;;12.10;99.90;;;;;;4996873;28;20611;-80
2022/04/23 06:34:18;;;;;;;0.40;0.40;;;12.20;99.90;;;;;;5003867;28;20202;-81
2022/04/23 06:36:43;;;;;;;1.33;1.03;;;12.40;99.90;;;;;;5014212;28;20215;-82
2022/04/23 06:39:09;;;;;;;0.30;0.30;;;12.30;99.90;;;;;;4999461;28;20740;-82
2022/04/23 06:41:35;;;;;;;0.77;0.50;;;12.50;99.90;;;;;;5005394;28;20197;-82
2022/04/23 06:44:01;;;;;;;0.83;0.83;;;12.50;99.90;;;;;;4997105;28;20254;-82
2022/04/23 06:46:27;;;;;;;0.73;0.73;;;12.60;99.90;;;;;;5014282;28;20588;-81
2022/04/23 06:48:52;;;;;;;1.60;0.77;;;12.50;99.90;;;;;;4999717;28;20616;-82
2022/04/23 06:51:18;;;;;;;1.23;0.90;;;12.70;99.90;;;;;;5005541;28;20211;-81
2022/04/23 06:53:44;;;;;;;0.90;0.60;;;12.70;99.90;;;;;;5004590;28;20266;-82
2022/04/23 06:56:10;;;;;;;1.03;0.77;;;12.70;99.90;;;;;;4998971;28;20269;-82
2022/04/23 06:58:35;;;;;;;0.53;0.53;;;12.60;99.90;;;;;;5015099;28;20211;-82
2022/04/23 07:01:01;;;;;;;2.43;0.37;;;12.90;99.90;;;;;;5006346;28;20203;-82
2022/04/23 07:03:27;;;;;;;0.60;0.47;;;13.00;99.90;;;;;;5002380;28;20192;-82
2022/04/23 07:05:53;;;;;;;0.60;0.60;;;13.30;99.90;;;;;;5008722;28;20693;-81
2022/04/23 07:08:19;;;;;;;0.20;0.20;;;13.10;99.90;;;;;;5002298;28;20278;-82
2022/04/23 07:10:44;;;;;;;1.53;0.80;;;13.30;99.90;;;;;;5009364;28;20275;-82
2022/04/23 07:13:11;;;;;;;0.30;0.30;;;13.10;99.90;;;;;;5001518;28;20210;-82
2022/04/23 07:15:37;;;;;;;1.43;0.63;;;13.30;99.90;;;;;;5001166;28;20213;-82
2022/04/23 07:18:03;;;;;;;0.50;0.50;;;13.40;99.90;;;;;;5000076;28;20681;-82
2022/04/23 07:20:29;;;;;;;1.00;1.00;;;13.40;99.90;;;;;;5016504;28;20300;-82
2022/04/23 07:25:38;;;;;;;0.80;0.57;;;13.60;99.90;;;;;;5003531;28;20222;-82
2022/04/23 07:28:05;;;;;;;0.93;0.93;;;13.60;99.90;;;;;;5009072;28;20669;-82
2022/04/23 07:30:31;;;;;;;0.97;0.97;;;13.60;99.90;;;;;;5008744;28;20209;-82
2022/04/23 07:32:57;;;;;;;1.33;0.60;;;13.50;99.90;;;;;;5000805;28;20202;-82
2022/04/23 07:38:26;;;;;;;0.70;0.60;;;13.20;99.90;;;;;;4981263;28;20180;-81
2022/04/23 07:40:52;;;;;;;0.43;0.43;;;13.30;99.90;;;;;;5002776;28;20199;-81
2022/04/23 07:43:18;;;;;;;0.63;0.60;;;13.50;99.90;;;;;;5017839;28;20750;-83
2022/04/23 07:45:45;;;;;;;0.37;0.37;;;13.60;99.90;;;;;;5005578;28;20286;-81
2022/04/23 07:48:12;;;;;;;0.47;0.47;;;13.50;99.90;;;;;;5001439;28;20278;-82
2022/04/23 07:50:39;;;;;;;0.50;0.50;;;14.00;99.90;;;;;;5017015;28;20296;-82
2022/04/23 07:53:07;;;;;;;1.00;0.87;;;13.90;99.90;;;;;;5002950;28;20190;-81
2022/04/23 07:55:36;;;;;;;1.37;1.20;;;13.30;99.90;;;;;;5000269;28;20294;-82
2022/04/23 07:58:06;;;;;;;0.73;0.73;;;13.50;99.90;;;;;;5016353;28;20187;-81
2022/04/23 08:00:34;;;;;;;1.43;0.77;;;13.90;99.90;;;;;;5006758;28;20204;-82
2022/04/23 08:03:02;;;;;;;0.47;0.47;;;14.20;99.90;;;;;;5007590;28;20179;-82
2022/04/23 08:05:29;;;;;;;1.07;0.80;;;14.40;99.90;;;;;;5016474;28;20551;-83
2022/04/23 08:07:54;;;;;;;1.20;0.53;;;14.90;99.90;;;;;;4998976;28;20208;-82
2022/04/23 08:10:20;;;;;;;0.50;0.50;;;15.20;99.90;;;;;;5017504;28;20197;-81
2022/04/23 08:12:46;;;;;;;0.70;0.70;;;15.00;99.90;;;;;;5000169;28;20177;-81
2022/04/23 08:15:12;;;;;;;1.07;0.63;;;14.60;99.90;;;;;;5006599;28;20862;-81
2022/04/23 08:17:37;;;;;;;1.83;1.10;;;14.30;99.90;;;;;;5017358;28;20205;-82
2022/04/23 08:20:04;;;;;;;0.43;0.43;;;14.20;99.90;;;;;;5006784;28;20234;-81
2022/04/23 08:22:29;;;;;;;0.50;0.50;;;14.60;99.90;;;;;;5003117;28;20218;-82
2022/04/23 08:24:56;;;;;;;1.40;1.30;;;14.90;99.90;;;;;;5006135;28;20220;-81
2022/04/23 08:27:21;;;;;;;0.67;0.67;;;14.00;99.90;;;;;;5016824;28;20191;-80
2022/04/23 08:32:31;;;;;;;0.77;0.60;;;14.30;99.90;;;;;;5003087;28;20600;-82
2022/04/23 08:34:57;;;;;;;4.93;1.13;;;14.70;99.90;;;;;;5007403;28;20230;-80
2022/04/23 08:37:22;;;;;;;0.83;0.50;;;15.20;99.90;;;;;;5007790;28;20214;-82
2022/04/23 08:39:48;;;;;;;0.47;0.47;;;15.60;99.90;;;;;;5002306;28;20249;-82
2022/04/23 08:42:18;;;;;;;0.27;0.23;;;15.70;99.90;;;;;;5015044;28;20597;-82
2022/04/23 08:44:44;;;;;;;0.40;0.40;;;15.40;99.90;;;;;;5007199;28;20187;-83
2022/04/23 08:47:16;;;;;;;1.00;0.70;;;15.20;99.90;;;;;;5009387;28;20198;-82
2022/04/23 08:49:42;;;;;;;0.40;0.40;;;15.20;99.90;;;;;;5007780;28;20210;-82
2022/04/23 08:52:25;;;;;;;1.83;0.87;;;15.00;99.90;;;;;;5007617;28;20612;-81
2022/04/23 08:54:52;;;;;;;0.73;0.63;;;15.40;99.90;;;;;;5001217;28;20181;-83
2022/04/23 08:57:18;;;;;;;0.50;0.50;;;15.30;99.90;;;;;;5001280;28;20223;-83
2022/04/23 08:59:45;;;;;;;0.37;0.37;;;15.70;99.90;;;;;;5006841;28;20633;-82
2022/04/23 09:02:12;;;;;;;0.37;0.37;;;16.20;99.90;;;;;;5001073;28;20285;-82
2022/04/23 09:04:37;;;;;;;0.37;0.37;;;15.90;99.90;;;;;;5006722;28;20214;-82
2022/04/23 09:07:03;;;;;;;1.43;0.87;;;15.50;99.90;;;;;;5006842;28;20203;-83
2022/04/23 09:09:29;;;;;;;1.00;0.80;;;15.60;99.90;;;;;;5006121;28;20218;-83
2022/04/23 09:11:58;;;;;;;1.20;0.60;;;15.20;99.90;;;;;;4999319;28;20695;-82
2022/04/23 09:14:30;;;;;;;3.03;0.27;;;15.40;99.90;;;;;;4998958;28;20244;-82
2022/04/23 09:25:17;;;;;;;0.67;0.53;;;16.50;99.90;;;;;;4998505;28;20194;-82
2022/04/23 09:27:43;;;;;;;1.80;0.60;;;16.30;99.90;;;;;;5001264;28;20182;-82
2022/04/23 09:30:13;;;;;;;0.70;0.70;;;16.50;99.90;;;;;;5005952;28;20291;-82
2022/04/23 09:33:00;;;;;;;0.70;0.63;;;16.00;99.90;;;;;;5006343;28;20249;-82
2022/04/23 09:35:26;;;;;;;0.70;0.70;;;15.70;99.90;;;;;;5000518;28;20174;-82
2022/04/23 09:40:36;;;;;;;0.53;0.53;;;15.50;99.90;;;;;;5001474;28;20678;-82
2022/04/23 09:43:05;;;;;;;0.80;0.80;;;15.70;99.90;;;;;;5006644;28;20185;-82
2022/04/23 09:45:32;;;;;;;1.37;0.67;;;15.30;99.90;;;;;;5008590;28;20189;-82
2022/04/23 09:48:04;;;;;;;0.70;0.70;;;15.30;99.90;;;;;;5001180;28;20761;-82
2022/04/23 09:50:36;;;;;;;0.70;0.70;;;15.10;99.90;;;;;;5003398;28;20215;-82
2022/04/23 09:53:12;;;;;;;0.77;0.50;;;15.60;99.90;;;;;;5009046;28;20182;-82
2022/04/23 09:55:38;;;;;;;0.40;0.40;;;15.40;99.90;;;;;;4999067;28;20579;-82
2022/04/23 09:58:08;;;;;;;1.23;0.60;;;15.20;99.90;;;;;;5004070;28;20671;-82
2022/04/23 10:00:44;;;;;;;0.63;0.63;;;15.20;99.90;;;;;;5000022;28;20575;-81
2022/04/23 10:03:11;;;;;;;0.87;0.60;;;15.30;99.90;;;;;;5006788;28;20189;-82
2022/04/23 10:05:42;;;;;;;4.57;0.77;;;15.30;99.90;;;;;;4997536;28;20246;-82
2022/04/23 10:08:13;;;;;;;2.30;0.83;;;15.80;99.90;;;;;;5014652;28;20986;-83
2022/04/23 10:10:53;;;;;;;0.30;0.30;;;15.70;99.90;;;;;;5014892;28;20207;-82
2022/04/23 10:13:21;;;;;;;2.13;0.53;;;15.60;99.90;;;;;;5014371;28;20532;-83
2022/04/23 10:15:48;;;;;;;0.90;0.63;;;15.80;99.90;;;;;;4998793;28;20250;-83
2022/04/23 10:18:15;;;;;;;0.83;0.70;;;15.80;99.90;;;;;;5014177;28;20185;-82
2022/04/23 10:20:52;;;;;;;0.60;0.60;;;15.80;99.90;;;;;;4999348;28;20210;-82
2022/04/23 10:23:46;;;;;;;0.43;0.43;;;16.80;99.90;;;;;;4998344;28;20605;-83
2022/04/23 10:26:20;;;;;;;0.67;0.63;;;17.60;99.90;;;;;;4999677;28;20699;-83
2022/04/23 10:28:47;;;;;;;0.43;0.43;;;17.80;99.90;;;;;;5016154;28;20214;-83
2022/04/23 10:31:15;;;;;;;0.67;0.67;;;17.90;99.90;;;;;;5013381;28;20191;-83
2022/04/23 10:33:50;;;;;;;0.40;0.37;;;18.30;99.90;;;;;;5016155;28;20202;-82
2022/04/23 10:36:16;;;;;;;0.33;0.33;;;17.70;99.90;;;;;;5000134;28;20202;-82
2022/04/23 10:38:44;;;;;;;0.83;0.83;;;18.20;99.90;;;;;;5004379;28;20199;-83
2022/04/23 10:41:14;;;;;;;0.80;0.80;;;18.20;99.90;;;;;;5004156;28;20203;-83
2022/04/23 10:44:00;;;;;;;0.77;0.50;;;18.60;99.90;;;;;;5003953;28;20194;-83
2022/04/23 10:46:43;;;;;;;0.40;0.40;;;19.00;99.90;;;;;;4998623;28;20187;-82
2022/04/23 10:49:15;;;;;;;0.30;0.30;;;19.00;99.90;;;;;;4996254;28;20211;-83
2022/04/23 10:51:49;;;;;;;0.87;0.87;;;19.10;99.90;;;;;;5005125;28;20215;-83
2022/04/23 10:54:18;;;;;;;1.07;0.60;;;19.40;99.90;;;;;;5001681;28;20673;-83
2022/04/23 10:56:47;;;;;;;0.50;0.50;;;18.40;99.90;;;;;;4997921;28;20211;-82
2022/04/23 10:59:33;;;;;;;0.87;0.80;;;18.40;99.90;;;;;;4999535;28;20209;-83
2022/04/23 11:02:05;;;;;;;0.83;0.73;;;17.80;99.90;;;;;;4997496;28;20187;-82
2022/04/23 11:04:33;;;;;;;1.10;1.00;;;17.50;99.90;;;;;;5000817;28;20198;-83
2022/04/23 11:12:51;;;;;;;1.10;0.80;;;17.20;99.90;;;;;;4995108;28;20362;-82
2022/04/23 11:15:19;;;;;;;0.60;0.40;;;17.30;99.90;;;;;;4999239;28;20175;-82
2022/04/23 11:17:53;;;;;;;0.67;0.63;;;17.10;99.90;;;;;;5013003;28;20187;-83
2022/04/23 11:20:30;;;;;;;1.10;1.00;;;17.30;99.90;;;;;;4996851;28;20236;-83
2022/04/23 11:22:59;;;;;;;0.67;0.60;;;17.00;99.90;;;;;;4998498;28;20184;-83
2022/04/23 11:25:24;;;;;;;1.23;1.13;;;17.10;99.90;;;;;;4999760;28;20195;-82
2022/04/23 11:27:50;;;;;;;0.90;0.90;;;17.60;99.90;;;;;;4998206;28;20560;-83
2022/04/23 11:30:27;;;;;;;1.23;1.03;;;16.80;99.90;;;;;;5012750;28;20209;-82
2022/04/23 11:32:53;;;;;;;1.20;0.93;;;16.50;99.90;;;;;;4999810;28;20642;-83
2022/04/23 11:35:28;;;;;;;0.67;0.67;;;16.00;99.90;;;;;;5008061;28;20191;-83
2022/04/23 11:37:53;;;;;;;1.17;0.90;;;16.10;99.90;;;;;;4999776;28;20182;-82
2022/04/23 11:40:24;;;;;;;0.83;0.83;;;15.90;99.90;;;;;;5016414;28;20410;-82
2022/04/23 11:42:49;;;;;;;2.30;2.20;;;16.10;99.90;;;;;;5014712;28;20198;-83
2022/04/23 11:45:16;;;;;;;1.27;0.90;;;16.30;99.90;;;;;;4998652;28;20254;-83
2022/04/23 11:47:42;;;;;;;2.83;0.80;;;16.60;99.90;;;;;;5013801;28;20198;-83
2022/04/23 11:50:12;;;;;;;1.10;1.00;;;16.70;99.90;;;;;;5008508;28;20630;-82
2022/04/23 11:52:42;;;;;;;0.97;0.90;;;16.40;99.90;;;;;;5016881;28;20195;-82
2022/04/23 11:55:19;;;;;;;0.50;0.50;;;16.30;99.90;;;;;;5001780;28;20287;-82
2022/04/23 11:58:01;;;;;;;1.00;0.90;;;16.80;99.90;;;;;;5004275;28;20241;-82
2022/04/23 12:00:28;;;;;;;1.23;1.13;;;16.50;99.90;;;;;;5003076;28;20203;-82
2022/04/23 12:02:54;;;;;;;1.63;1.27;;;16.50;99.90;;;;;;5001123;28;20278;-82
2022/04/23 12:05:24;;;;;;;0.90;0.87;;;16.60;99.90;;;;;;5001140;28;20195;-83
2022/04/23 12:07:50;;;;;;;1.50;1.07;;;16.60;99.90;;;;;;5005061;28;20625;-82
2022/04/23 12:10:31;;;;;;;0.83;0.83;;;16.80;99.90;;;;;;5018856;28;20210;-81
2022/04/23 12:13:06;;;;;;;2.70;1.27;;;16.80;99.90;;;;;;5003235;28;20191;-81
2022/04/23 12:15:32;;;;;;;2.70;1.00;;;16.50;99.90;;;;;;5016964;28;20182;-81
2022/04/23 12:17:58;;;;;;;1.87;1.77;;;16.20;99.90;;;;;;5000876;28;20196;-82
2022/04/23 12:20:34;;;;;;;0.67;0.57;;;16.30;99.90;;;;;;5007503;28;20203;-81
2022/04/23 12:23:08;;;;;;;1.10;0.87;;;16.30;99.90;;;;;;4998883;28;20198;-82
2022/04/23 12:25:35;;;;;;;1.13;1.03;;;16.10;99.90;;;;;;5001674;28;20240;-83
2022/04/23 12:42:10;;;;;;;2.47;1.57;;;16.80;99.90;;;;;;4999966;28;20249;-81
2022/04/23 12:44:42;;;;;;;4.20;1.03;;;16.70;99.90;;;;;;5001665;28;20190;-83
2022/04/23 12:47:10;;;;;;;6.00;1.70;;;16.40;99.90;;;;;;5000266;28;20182;-82
2022/04/23 12:49:55;;;;;;;1.30;1.20;;;16.70;99.90;;;;;;4999636;28;21208;-82
2022/04/23 12:52:43;;;;;;;2.70;1.63;;;17.20;99.90;;;;;;5000277;28;20200;-82
2022/04/23 12:55:18;;;;;;;1.50;1.40;;;17.40;99.90;;;;;;4999963;28;20191;-81
2022/04/23 12:58:02;;;;;;;1.73;1.43;;;17.90;99.90;;;;;;5000818;28;20215;-82
2022/04/23 13:00:29;;;;;;;3.20;2.00;;;17.50;99.90;;;;;;5014934;28;20195;-81
2022/04/23 13:03:02;;;;;;;1.97;1.83;;;17.90;99.90;;;;;;5004606;28;20203;-82
2022/04/23 13:05:28;;;;;;;1.50;1.40;;;17.60;99.90;;;;;;4999949;28;20169;-82
2022/04/23 13:10:38;;;;;;;3.00;1.90;;;18.10;99.90;;;;;;5000369;28;20221;-82
2022/04/23 13:13:09;;;;;;;2.17;1.53;;;17.90;99.90;;;;;;4999678;28;20188;-82
2022/04/23 13:15:36;;;;;;;2.03;1.03;;;17.40;99.90;;;;;;5006217;28;20919;-83
2022/04/23 13:18:02;;;;;;;2.63;1.53;;;17.50;99.90;;;;;;4999884;28;20225;-83
2022/04/23 13:20:28;;;;;;;1.80;1.43;;;17.40;99.90;;;;;;5000252;28;20205;-82
2022/04/23 13:22:55;;;;;;;1.23;0.93;;;16.70;99.90;;;;;;5005650;28;20688;-82
2022/04/23 13:25:21;;;;;;;1.40;1.30;;;17.00;99.90;;;;;;5014313;28;20585;-81
2022/04/23 13:27:46;;;;;;;1.80;1.63;;;17.10;99.90;;;;;;5006876;28;20187;-82
2022/04/23 13:30:13;;;;;;;2.10;0.80;;;16.80;99.90;;;;;;5007184;28;20616;-82
2022/04/23 13:32:39;;;;;;;1.70;1.60;;;16.70;99.90;;;;;;5018450;28;20190;-82